createdAt,value
2023-01-07T00:00:15.706Z,10.63
2023-01-07T00:02:20.656Z,10.63
2023-01-07T00:04:26.585Z,10.62
2023-01-07T00:06:34.582Z,10.63
2023-01-07T00:08:41.480Z,10.62
2023-01-07T00:10:46.615Z,10.62
2023-01-07T00:12:51.596Z,10.60
2023-01-07T00:14:56.374Z,10.58
2023-01-07T00:17:01.267Z,10.56
2023-01-07T00:19:07.991Z,10.55
2023-01-07T00:21:15.658Z,10.53
2023-01-07T00:23:20.361Z,10.51
2023-01-07T00:25:25.414Z,10.50
2023-01-07T00:27:30.275Z,10.49
2023-01-07T00:29:35.331Z,10.48
2023-01-07T00:31:41.403Z,10.47
2023-01-07T00:33:47.160Z,10.46
2023-01-07T00:36:00.270Z,10.44
2023-01-07T00:38:05.492Z,10.43
2023-01-07T00:40:13.892Z,10.43
2023-01-07T00:42:18.931Z,10.42
2023-01-07T00:44:23.678Z,10.42
2023-01-07T00:46:28.364Z,10.43
2023-01-07T00:48:33.425Z,10.42
2023-01-07T00:50:39.556Z,10.42
2023-01-07T00:52:44.232Z,10.42
2023-01-07T00:54:49.274Z,10.40
2023-01-07T00:56:54.001Z,10.41
2023-01-07T00:58:59.552Z,10.42
2023-01-07T01:01:05.007Z,10.41
2023-01-07T01:03:10.632Z,10.40
2023-01-07T01:05:15.649Z,10.41
2023-01-07T01:07:20.431Z,10.41
2023-01-07T01:09:25.214Z,10.41
2023-01-07T01:11:30.045Z,10.41
2023-01-07T01:13:35.253Z,10.41
2023-01-07T01:15:43.404Z,10.44
2023-01-07T01:17:50.303Z,10.46
2023-01-07T01:19:55.084Z,10.48
2023-01-07T01:22:00.000Z,10.51
2023-01-07T01:24:04.901Z,10.55
2023-01-07T01:26:11.889Z,10.60
2023-01-07T01:28:16.835Z,10.68
2023-01-07T01:30:21.681Z,10.73
2023-01-07T01:32:27.156Z,10.79
2023-01-07T01:34:32.971Z,10.82
2023-01-07T01:36:38.079Z,10.84
2023-01-07T01:38:43.154Z,10.91
2023-01-07T01:40:48.085Z,10.99
2023-01-07T01:42:52.746Z,11.04
2023-01-07T01:45:00.239Z,11.08
2023-01-07T01:47:22.662Z,11.08
2023-01-07T01:49:31.183Z,11.05
2023-01-07T01:51:41.610Z,11.06
2023-01-07T01:53:46.939Z,11.12
2023-01-07T01:55:55.445Z,11.19
2023-01-07T01:58:03.122Z,11.24
2023-01-07T02:00:10.064Z,11.29
2023-01-07T02:02:24.669Z,11.32
2023-01-07T02:04:30.795Z,11.37
2023-01-07T02:06:39.630Z,11.37
2023-01-07T02:08:44.415Z,11.37
2023-01-07T02:10:53.575Z,11.36
2023-01-07T02:13:25.961Z,11.35
2023-01-07T02:15:40.670Z,11.36
2023-01-07T02:17:58.036Z,11.37
2023-01-07T02:20:31.063Z,11.37
2023-01-07T02:22:53.208Z,11.37
2023-01-07T02:25:15.023Z,11.39
2023-01-07T02:27:42.693Z,11.40
2023-01-07T02:30:18.207Z,11.39
2023-01-07T02:32:48.933Z,11.39
2023-01-07T02:35:03.338Z,11.43
2023-01-07T02:37:14.847Z,11.45
2023-01-07T02:39:36.379Z,11.44
2023-01-07T02:41:51.610Z,11.44
2023-01-07T02:44:01.997Z,11.50
2023-01-07T02:46:16.286Z,11.54
2023-01-07T02:48:22.705Z,11.59
2023-01-07T02:50:27.397Z,11.65
2023-01-07T02:52:35.285Z,11.68
2023-01-07T02:54:40.093Z,11.70
2023-01-07T02:57:02.211Z,11.74
2023-01-07T02:59:22.124Z,11.76
2023-01-07T03:01:46.804Z,11.76
2023-01-07T03:04:06.011Z,11.77
2023-01-07T03:06:28.260Z,11.77
2023-01-07T03:08:56.075Z,11.78
2023-01-07T03:11:02.897Z,11.79
2023-01-07T03:13:11.996Z,11.78
2023-01-07T03:15:22.222Z,11.75
2023-01-07T03:17:31.419Z,11.75
2023-01-07T03:19:39.920Z,11.75
2023-01-07T03:21:47.939Z,11.78
2023-01-07T03:23:56.569Z,11.80
2023-01-07T03:26:04.823Z,11.81
2023-01-07T03:28:15.435Z,11.84
2023-01-07T03:30:22.184Z,11.86
2023-01-07T03:32:31.642Z,11.87
2023-01-07T03:34:37.586Z,11.89
2023-01-07T03:36:46.653Z,11.90
2023-01-07T03:38:52.849Z,11.91
2023-01-07T03:40:57.886Z,11.93
2023-01-07T03:43:02.607Z,11.95
2023-01-07T03:45:11.488Z,11.95
2023-01-07T03:47:16.315Z,11.95
2023-01-07T03:49:21.066Z,11.95
2023-01-07T03:51:25.856Z,11.96
2023-01-07T03:53:30.599Z,11.96
2023-01-07T03:55:35.376Z,11.92
2023-01-07T03:57:40.091Z,11.91
2023-01-07T03:59:44.793Z,11.92
2023-01-07T04:01:50.212Z,11.90
2023-01-07T04:03:56.015Z,11.88
2023-01-07T04:06:00.767Z,11.90
2023-01-07T04:08:05.911Z,11.90
2023-01-07T04:10:12.536Z,11.90
2023-01-07T04:12:17.431Z,11.91
2023-01-07T04:14:22.883Z,11.91
2023-01-07T04:16:27.984Z,11.90
2023-01-07T04:18:33.304Z,11.90
2023-01-07T04:20:38.376Z,11.87
2023-01-07T04:22:43.120Z,11.83
2023-01-07T04:24:47.865Z,11.77
2023-01-07T04:26:52.811Z,11.70
2023-01-07T04:28:58.032Z,11.67
2023-01-07T04:31:03.228Z,11.67
2023-01-07T04:33:08.279Z,11.65
2023-01-07T04:35:13.024Z,11.63
2023-01-07T04:37:17.767Z,11.62
2023-01-07T04:39:22.788Z,11.60
2023-01-07T04:41:28.006Z,11.56
2023-01-07T04:43:32.795Z,11.53
2023-01-07T04:45:37.560Z,11.51
2023-01-07T04:47:42.686Z,11.49
2023-01-07T04:49:48.048Z,11.46
2023-01-07T04:51:54.428Z,11.44
2023-01-07T04:54:02.678Z,11.44
2023-01-07T04:56:08.406Z,11.42
2023-01-07T04:58:13.436Z,11.41
2023-01-07T05:00:18.704Z,11.38
2023-01-07T05:02:24.457Z,11.35
2023-01-07T05:04:30.595Z,11.33
2023-01-07T05:06:35.516Z,11.32
2023-01-07T05:08:40.425Z,11.32
2023-01-07T05:10:45.450Z,11.27
2023-01-07T05:12:50.462Z,11.25
2023-01-07T05:14:55.553Z,11.26
2023-01-07T05:17:00.390Z,11.26
2023-01-07T05:19:06.175Z,11.24
2023-01-07T05:21:14.132Z,11.20
2023-01-07T05:23:18.915Z,11.21
2023-01-07T05:25:23.712Z,11.20
2023-01-07T05:27:28.945Z,11.18
2023-01-07T05:29:34.286Z,11.15
2023-01-07T05:31:39.026Z,11.13
2023-01-07T05:33:43.876Z,11.10
2023-01-07T05:35:50.166Z,11.09
2023-01-07T05:37:55.387Z,11.08
2023-01-07T05:40:00.368Z,11.07
2023-01-07T05:42:05.314Z,11.05
2023-01-07T05:44:10.173Z,11.02
2023-01-07T05:46:14.888Z,11.05
2023-01-07T05:48:19.578Z,11.07
2023-01-07T05:50:24.340Z,11.08
2023-01-07T05:52:29.070Z,11.08
2023-01-07T05:54:33.849Z,11.05
2023-01-07T05:56:39.022Z,11.02
2023-01-07T05:58:43.788Z,11.02
2023-01-07T06:00:48.475Z,11.02
2023-01-07T06:02:53.069Z,11.01
2023-01-07T06:04:57.741Z,11.01
2023-01-07T06:07:02.474Z,11.02
2023-01-07T06:09:07.622Z,11.00
2023-01-07T06:11:12.416Z,10.97
2023-01-07T06:13:17.028Z,10.93
2023-01-07T06:15:21.771Z,10.89
2023-01-07T06:17:26.763Z,10.85
2023-01-07T06:19:31.605Z,10.80
2023-01-07T06:21:36.282Z,10.79
2023-01-07T06:23:44.024Z,10.77
2023-01-07T06:25:48.758Z,10.74
2023-01-07T06:27:53.444Z,10.70
2023-01-07T06:29:58.135Z,10.66
2023-01-07T06:32:02.811Z,10.64
2023-01-07T06:34:07.490Z,10.60
2023-01-07T06:36:12.318Z,10.57
2023-01-07T06:38:17.032Z,10.55
2023-01-07T06:40:21.687Z,10.52
2023-01-07T06:42:26.391Z,10.52
2023-01-07T06:44:31.010Z,10.51
2023-01-07T06:46:35.836Z,10.54
2023-01-07T06:48:40.629Z,10.57
2023-01-07T06:50:45.731Z,10.60
2023-01-07T06:52:50.377Z,10.61
2023-01-07T06:54:55.026Z,10.58
2023-01-07T06:56:59.680Z,10.56
2023-01-07T06:59:07.509Z,10.54
2023-01-07T07:01:12.830Z,10.52
2023-01-07T07:03:17.696Z,10.53
2023-01-07T07:05:22.471Z,10.52
2023-01-07T07:07:27.147Z,10.52
2023-01-07T07:09:31.858Z,10.53
2023-01-07T07:11:36.711Z,10.53
2023-01-07T07:13:41.366Z,10.53
2023-01-07T07:15:46.204Z,10.53
2023-01-07T07:17:50.863Z,10.52
2023-01-07T07:19:55.492Z,10.49
2023-01-07T07:22:00.293Z,10.45
2023-01-07T07:24:05.592Z,10.41
2023-01-07T07:26:10.248Z,10.35
2023-01-07T07:28:14.912Z,10.30
2023-01-07T07:30:19.631Z,10.27
2023-01-07T07:32:24.421Z,10.25
2023-01-07T07:34:29.557Z,10.19
2023-01-07T07:36:34.383Z,10.10
2023-01-07T07:38:42.072Z,10.02
2023-01-07T07:40:46.756Z,9.96
2023-01-07T07:43:10.436Z,9.95
2023-01-07T07:45:17.552Z,9.93
2023-01-07T07:47:22.458Z,9.96
2023-01-07T07:49:27.281Z,9.97
2023-01-07T07:51:32.391Z,10.00
2023-01-07T07:53:37.415Z,10.01
2023-01-07T07:55:42.145Z,9.98
2023-01-07T07:57:49.837Z,9.90
2023-01-07T07:59:54.556Z,9.81
2023-01-07T08:01:59.364Z,9.73
2023-01-07T08:04:04.118Z,9.68
2023-01-07T08:06:09.907Z,9.64
2023-01-07T08:08:16.346Z,9.65
2023-01-07T08:10:21.149Z,9.66
2023-01-07T08:12:25.854Z,9.74
2023-01-07T08:14:30.726Z,9.80
2023-01-07T08:16:35.520Z,9.82
2023-01-07T08:18:40.321Z,9.86
2023-01-07T08:20:45.108Z,9.82
2023-01-07T08:22:49.843Z,9.82
2023-01-07T08:24:54.567Z,9.86
2023-01-07T08:26:59.264Z,9.91
2023-01-07T08:29:04.105Z,9.91
2023-01-07T08:31:09.564Z,9.95
2023-01-07T08:33:17.906Z,9.97
2023-01-07T08:35:23.227Z,10.01
2023-01-07T08:37:30.702Z,10.05
2023-01-07T08:39:35.610Z,10.13
2023-01-07T08:41:40.327Z,10.18
2023-01-07T08:43:45.105Z,10.22
2023-01-07T08:45:51.585Z,10.29
2023-01-07T08:47:56.412Z,10.38
2023-01-07T08:50:01.108Z,10.39
2023-01-07T08:52:06.406Z,10.39
2023-01-07T08:54:11.189Z,10.41
2023-01-07T08:56:16.001Z,10.48
2023-01-07T08:58:20.799Z,10.54
2023-01-07T09:00:25.924Z,10.60
2023-01-07T09:02:30.643Z,10.67
2023-01-07T09:04:35.408Z,10.74
2023-01-07T09:06:40.217Z,10.80
2023-01-07T09:08:44.931Z,10.88
2023-01-07T09:10:49.800Z,10.99
2023-01-07T09:12:54.479Z,11.11
2023-01-07T09:14:59.199Z,11.20
2023-01-07T09:17:03.960Z,11.25
2023-01-07T09:19:08.684Z,11.27
2023-01-07T09:21:13.462Z,11.30
2023-01-07T09:23:18.199Z,11.29
2023-01-07T09:25:22.997Z,11.30
2023-01-07T09:27:28.191Z,11.27
2023-01-07T09:29:32.989Z,11.22
2023-01-07T09:31:37.961Z,11.16
2023-01-07T09:33:42.951Z,11.12
2023-01-07T09:35:48.089Z,11.06
2023-01-07T09:37:52.840Z,11.06
2023-01-07T09:39:57.645Z,11.09
2023-01-07T09:42:12.630Z,11.07
2023-01-07T09:44:25.517Z,11.05
2023-01-07T09:46:31.185Z,11.09
2023-01-07T09:48:40.474Z,11.12
2023-01-07T09:50:50.666Z,11.11
2023-01-07T09:53:00.224Z,11.08
2023-01-07T09:55:16.299Z,11.05
2023-01-07T09:57:21.314Z,10.96
2023-01-07T09:59:26.184Z,10.93
2023-01-07T10:01:37.090Z,10.95
2023-01-07T10:04:02.840Z,10.99
2023-01-07T10:06:12.906Z,11.00
2023-01-07T10:08:29.086Z,11.00
2023-01-07T10:10:44.820Z,11.01
2023-01-07T10:12:55.043Z,11.04
2023-01-07T10:15:20.698Z,11.07
2023-01-07T10:17:37.416Z,11.14
2023-01-07T10:19:49.607Z,11.20
2023-01-07T10:21:58.573Z,11.23
2023-01-07T10:24:09.581Z,11.31
2023-01-07T10:26:25.102Z,11.38
2023-01-07T10:28:36.002Z,11.43
2023-01-07T10:30:46.105Z,11.48
2023-01-07T10:32:58.854Z,11.55
2023-01-07T10:35:04.548Z,11.61
2023-01-07T10:37:16.466Z,11.68
2023-01-07T10:39:27.892Z,11.75
2023-01-07T10:41:42.220Z,11.86
2023-01-07T10:44:07.024Z,11.97
2023-01-07T10:46:24.094Z,12.04
2023-01-07T10:48:47.239Z,12.10
2023-01-07T10:51:02.022Z,12.20
2023-01-07T10:53:19.385Z,12.28
2023-01-07T10:55:42.602Z,12.34
2023-01-07T10:57:49.710Z,12.41
2023-01-07T10:59:57.388Z,12.48
2023-01-07T11:02:02.937Z,12.53
2023-01-07T11:04:14.748Z,12.58
2023-01-07T11:06:26.593Z,12.66
2023-01-07T11:08:38.362Z,12.71
2023-01-07T11:10:43.670Z,12.79
2023-01-07T11:12:51.096Z,12.80
2023-01-07T11:14:58.717Z,12.82
2023-01-07T11:17:13.796Z,12.86
2023-01-07T11:19:18.567Z,12.95
2023-01-07T11:21:43.815Z,12.99
2023-01-07T11:23:49.186Z,13.06
2023-01-07T11:25:54.707Z,13.13
2023-01-07T11:28:03.417Z,13.22
2023-01-07T11:30:21.560Z,13.27
2023-01-07T11:32:30.957Z,13.23
2023-01-07T11:34:37.842Z,13.11
2023-01-07T11:36:43.663Z,12.96
2023-01-07T11:38:48.718Z,12.81
2023-01-07T11:40:59.958Z,12.69
2023-01-07T11:43:22.838Z,12.55
2023-01-07T11:45:31.790Z,12.46
2023-01-07T11:47:39.877Z,12.41
2023-01-07T11:49:45.985Z,12.38
2023-01-07T11:51:50.695Z,12.38
2023-01-07T11:53:59.202Z,12.34
2023-01-07T11:56:06.246Z,12.31
2023-01-07T11:58:29.736Z,12.29
2023-01-07T12:00:35.221Z,12.28
2023-01-07T12:02:40.025Z,12.23
2023-01-07T12:04:44.799Z,12.21
2023-01-07T12:06:52.039Z,12.20
2023-01-07T12:09:02.891Z,12.20
2023-01-07T12:11:09.982Z,12.26
2023-01-07T12:13:21.885Z,12.34
2023-01-07T12:15:29.371Z,12.43
2023-01-07T12:17:35.819Z,12.49
2023-01-07T12:20:13.216Z,12.60
2023-01-07T12:22:29.094Z,12.71
2023-01-07T12:25:11.267Z,12.77
2023-01-07T12:27:28.773Z,12.79
2023-01-07T12:29:45.541Z,12.78
2023-01-07T12:32:04.103Z,12.76
2023-01-07T12:34:16.282Z,12.75
2023-01-07T12:36:27.738Z,12.78
2023-01-07T12:38:40.406Z,12.80
2023-01-07T12:40:51.651Z,12.82
2023-01-07T12:43:02.342Z,12.85
2023-01-07T12:45:14.746Z,12.87
2023-01-07T12:47:30.419Z,12.90
2023-01-07T12:49:43.426Z,12.92
2023-01-07T12:51:54.184Z,12.96
2023-01-07T12:54:05.685Z,12.99
2023-01-07T12:56:16.165Z,13.01
2023-01-07T12:58:31.254Z,13.03
2023-01-07T13:00:41.837Z,13.04
2023-01-07T13:02:53.310Z,13.07
2023-01-07T13:05:10.462Z,13.10
2023-01-07T13:07:21.213Z,13.13
2023-01-07T13:09:37.778Z,13.17
2023-01-07T13:11:46.199Z,13.20
2023-01-07T13:13:54.612Z,13.21
2023-01-07T13:15:59.441Z,13.20
2023-01-07T13:18:15.155Z,13.20
2023-01-07T13:20:33.103Z,13.21
2023-01-07T13:22:41.184Z,13.18
2023-01-07T13:24:59.874Z,13.16
2023-01-07T13:27:16.139Z,13.13
2023-01-07T13:29:29.840Z,13.11
2023-01-07T13:32:00.070Z,13.11
2023-01-07T13:34:18.207Z,13.08
2023-01-07T13:36:34.743Z,13.07
2023-01-07T13:39:00.356Z,13.06
2023-01-07T13:41:23.686Z,13.03
2023-01-07T13:43:47.570Z,13.00
2023-01-07T13:45:57.046Z,12.95
2023-01-07T13:48:05.445Z,12.93
2023-01-07T13:50:20.553Z,12.91
2023-01-07T13:52:27.882Z,12.86
2023-01-07T13:54:55.786Z,12.82
2023-01-07T13:57:20.492Z,12.77
2023-01-07T13:59:46.945Z,12.73
2023-01-07T14:02:24.291Z,12.66
2023-01-07T14:05:05.668Z,12.55
2023-01-07T14:07:11.466Z,12.49
2023-01-07T14:09:38.378Z,12.46
2023-01-07T14:12:01.728Z,12.38
2023-01-07T14:14:13.274Z,12.36
2023-01-07T14:16:26.637Z,12.34
2023-01-07T14:19:01.956Z,12.29
2023-01-07T14:21:17.498Z,12.25
2023-01-07T14:23:29.603Z,12.22
2023-01-07T14:25:53.569Z,12.20
2023-01-07T14:28:29.811Z,12.16
2023-01-07T14:30:43.461Z,12.12
2023-01-07T14:32:55.091Z,12.09
2023-01-07T14:35:03.375Z,12.07
2023-01-07T14:37:16.762Z,12.07
2023-01-07T14:39:35.941Z,12.04
2023-01-07T14:42:19.996Z,12.00
2023-01-07T14:44:31.711Z,11.93
2023-01-07T14:46:51.158Z,11.85
2023-01-07T14:49:19.147Z,11.81
2023-01-07T14:51:51.656Z,11.74
2023-01-07T14:54:33.221Z,11.69
2023-01-07T14:56:49.183Z,11.64
2023-01-07T14:59:08.040Z,11.61
2023-01-07T15:01:43.216Z,11.54
2023-01-07T15:03:57.225Z,11.47
2023-01-07T15:06:25.899Z,11.41
2023-01-07T15:08:39.860Z,11.34
2023-01-07T15:10:47.040Z,11.25
2023-01-07T15:12:56.640Z,11.15
2023-01-07T15:15:06.705Z,11.09
2023-01-07T15:17:14.320Z,11.05
2023-01-07T15:19:21.834Z,10.99
2023-01-07T15:21:37.337Z,10.92
2023-01-07T15:23:54.225Z,10.87
2023-01-07T15:26:06.068Z,10.79
2023-01-07T15:28:18.057Z,10.71
2023-01-07T15:30:38.301Z,10.66
2023-01-07T15:32:50.870Z,10.61
2023-01-07T15:34:55.813Z,10.57
2023-01-07T15:37:02.958Z,10.53
2023-01-07T15:39:16.047Z,10.52
2023-01-07T15:41:29.702Z,10.56
2023-01-07T15:43:35.004Z,10.60
2023-01-07T15:45:39.913Z,10.62
2023-01-07T15:47:44.701Z,10.60
2023-01-07T15:49:49.356Z,10.55
2023-01-07T15:52:01.313Z,10.49
2023-01-07T15:54:09.827Z,10.46
2023-01-07T15:56:16.720Z,10.42
2023-01-07T15:58:26.851Z,10.37
2023-01-07T16:00:31.690Z,10.32
2023-01-07T16:02:42.762Z,10.25
2023-01-07T16:04:50.595Z,10.21
2023-01-07T16:07:00.623Z,10.15
2023-01-07T16:09:21.392Z,10.09
2023-01-07T16:11:28.037Z,10.02
2023-01-07T16:13:33.309Z,9.97
2023-01-07T16:15:39.186Z,9.92
2023-01-07T16:17:53.618Z,9.87
2023-01-07T16:20:23.931Z,9.81
2023-01-07T16:22:28.974Z,9.75
2023-01-07T16:24:33.876Z,9.69
2023-01-07T16:26:42.201Z,9.64
2023-01-07T16:28:49.756Z,9.60
2023-01-07T16:30:55.835Z,9.57
2023-01-07T16:33:00.925Z,9.54
2023-01-07T16:35:08.511Z,9.50
2023-01-07T16:37:15.808Z,9.47
2023-01-07T16:39:24.088Z,9.45
2023-01-07T16:41:30.817Z,9.42
2023-01-07T16:43:44.744Z,9.39
2023-01-07T16:46:09.614Z,9.35
2023-01-07T16:48:21.419Z,9.30
2023-01-07T16:50:37.401Z,9.26
2023-01-07T16:52:51.161Z,9.22
2023-01-07T16:54:55.910Z,9.19
2023-01-07T16:57:02.728Z,9.19
2023-01-07T16:59:13.954Z,9.16
2023-01-07T17:01:21.029Z,9.15
2023-01-07T17:03:27.157Z,9.13
2023-01-07T17:05:32.616Z,9.10
2023-01-07T17:07:38.968Z,9.08
2023-01-07T17:09:43.849Z,9.05
2023-01-07T17:11:50.939Z,9.04
2023-01-07T17:13:56.102Z,9.00
2023-01-07T17:16:21.761Z,8.99
2023-01-07T17:18:30.593Z,8.97
2023-01-07T17:20:44.513Z,8.96
2023-01-07T17:22:50.057Z,8.95
2023-01-07T17:24:59.213Z,8.94
2023-01-07T17:27:05.469Z,8.93
2023-01-07T17:29:16.069Z,8.92
2023-01-07T17:31:21.263Z,8.89
2023-01-07T17:33:26.418Z,8.86
2023-01-07T17:35:31.150Z,8.85
2023-01-07T17:37:36.240Z,8.84
2023-01-07T17:39:40.959Z,8.82
2023-01-07T17:41:45.612Z,8.79
2023-01-07T17:43:50.334Z,8.77
2023-01-07T17:45:55.024Z,8.75
2023-01-07T17:48:00.078Z,8.74
2023-01-07T17:50:05.377Z,8.70
2023-01-07T17:52:11.157Z,8.68
2023-01-07T17:54:21.528Z,8.68
2023-01-07T17:56:26.641Z,8.66
2023-01-07T17:58:33.901Z,8.63
2023-01-07T18:00:38.615Z,8.63
2023-01-07T18:02:43.708Z,8.62
2023-01-07T18:04:48.377Z,8.59
2023-01-07T18:06:53.061Z,8.57
2023-01-07T18:08:57.759Z,8.55
2023-01-07T18:11:02.448Z,8.53
2023-01-07T18:13:07.400Z,8.51
2023-01-07T18:15:23.622Z,8.53
2023-01-07T18:17:28.762Z,8.54
2023-01-07T18:19:33.390Z,8.55
2023-01-07T18:21:38.094Z,8.57
2023-01-07T18:23:42.780Z,8.56
2023-01-07T18:25:47.815Z,8.53
2023-01-07T18:27:52.556Z,8.51
2023-01-07T18:29:57.435Z,8.49
2023-01-07T18:32:03.896Z,8.46
2023-01-07T18:34:09.023Z,8.41
2023-01-07T18:36:13.804Z,8.37
2023-01-07T18:38:18.527Z,8.35
2023-01-07T18:40:23.398Z,8.33
2023-01-07T18:42:28.240Z,8.31
2023-01-07T18:44:32.951Z,8.30
2023-01-07T18:46:38.956Z,8.26
2023-01-07T18:48:43.659Z,8.25
2023-01-07T18:50:49.909Z,8.25
2023-01-07T18:52:58.421Z,8.24
2023-01-07T18:55:03.323Z,8.20
2023-01-07T18:57:08.149Z,8.17
2023-01-07T18:59:13.166Z,8.17
2023-01-07T19:01:18.063Z,8.15
2023-01-07T19:03:22.822Z,8.13
2023-01-07T19:05:28.460Z,8.11
2023-01-07T19:07:33.185Z,8.09
2023-01-07T19:09:37.879Z,8.06
2023-01-07T19:11:42.602Z,8.07
2023-01-07T19:13:47.343Z,8.05
2023-01-07T19:15:53.260Z,8.04
2023-01-07T19:17:57.985Z,8.00
2023-01-07T19:20:04.170Z,7.97
2023-01-07T19:22:12.249Z,7.95
2023-01-07T19:24:17.273Z,7.95
2023-01-07T19:26:22.165Z,7.94
2023-01-07T19:28:29.739Z,7.93
2023-01-07T19:30:34.444Z,7.91
2023-01-07T19:32:39.573Z,7.92
2023-01-07T19:34:44.317Z,7.95
2023-01-07T19:36:49.014Z,7.94
2023-01-07T19:38:57.075Z,7.95
2023-01-07T19:41:01.827Z,7.94
2023-01-07T19:43:06.515Z,7.92
2023-01-07T19:45:11.923Z,7.90
2023-01-07T19:47:16.611Z,7.88
2023-01-07T19:49:21.335Z,7.86
2023-01-07T19:51:26.453Z,7.85
2023-01-07T19:53:32.900Z,7.84
2023-01-07T19:55:37.571Z,7.83
2023-01-07T19:57:42.948Z,7.82
2023-01-07T19:59:47.849Z,7.79
2023-01-07T20:01:52.606Z,7.80
2023-01-07T20:03:58.832Z,7.78
2023-01-07T20:06:05.106Z,7.79
2023-01-07T20:08:10.018Z,7.80
2023-01-07T20:10:14.816Z,7.78
2023-01-07T20:12:19.585Z,7.77
2023-01-07T20:14:24.366Z,7.73
2023-01-07T20:16:29.164Z,7.70
2023-01-07T20:18:38.587Z,7.68
2023-01-07T20:20:43.491Z,7.67
2023-01-07T20:22:48.340Z,7.66
2023-01-07T20:24:53.269Z,7.64
2023-01-07T20:26:57.927Z,7.61
2023-01-07T20:29:02.705Z,7.59
2023-01-07T20:31:09.225Z,7.58
2023-01-07T20:33:14.021Z,7.58
2023-01-07T20:35:18.819Z,7.55
2023-01-07T20:37:23.521Z,7.54
2023-01-07T20:39:28.285Z,7.54
2023-01-07T20:41:34.170Z,7.55
2023-01-07T20:43:39.592Z,7.54
2023-01-07T20:45:44.428Z,7.53
2023-01-07T20:47:49.138Z,7.51
2023-01-07T20:49:53.833Z,7.50
2023-01-07T20:51:58.544Z,7.50
2023-01-07T20:54:03.875Z,7.48
2023-01-07T20:56:09.712Z,7.43
2023-01-07T20:58:14.574Z,7.40
2023-01-07T21:00:20.088Z,7.39
2023-01-07T21:02:25.101Z,7.40
2023-01-07T21:04:29.955Z,7.38
2023-01-07T21:06:34.822Z,7.37
2023-01-07T21:08:39.895Z,7.36
2023-01-07T21:10:44.637Z,7.33
2023-01-07T21:12:49.653Z,7.28
2023-01-07T21:14:54.914Z,7.26
2023-01-07T21:16:59.970Z,7.22
2023-01-07T21:19:04.731Z,7.18
2023-01-07T21:21:14.091Z,7.16
2023-01-07T21:23:19.084Z,7.14
2023-01-07T21:25:23.927Z,7.14
2023-01-07T21:27:28.682Z,7.11
2023-01-07T21:29:33.368Z,7.08
2023-01-07T21:31:38.219Z,7.03
2023-01-07T21:33:43.574Z,7.00
2023-01-07T21:35:48.291Z,6.98
2023-01-07T21:37:55.305Z,6.99
2023-01-07T21:40:00.004Z,6.98
2023-01-07T21:42:05.375Z,6.96
2023-01-07T21:44:12.068Z,6.95
2023-01-07T21:46:17.356Z,6.95
2023-01-07T21:48:22.109Z,6.96
2023-01-07T21:50:26.789Z,6.96
2023-01-07T21:52:33.868Z,6.98
2023-01-07T21:54:38.716Z,7.00
2023-01-07T21:56:43.490Z,7.02
2023-01-07T21:58:48.691Z,7.04
2023-01-07T22:00:56.242Z,7.02
2023-01-07T22:03:01.152Z,7.00
2023-01-07T22:05:06.986Z,6.93
2023-01-07T22:07:14.467Z,6.89
2023-01-07T22:09:19.104Z,6.84
2023-01-07T22:11:24.368Z,6.81
2023-01-07T22:13:30.252Z,6.80
2023-01-07T22:15:34.896Z,6.80
2023-01-07T22:17:39.581Z,6.81
2023-01-07T22:19:45.153Z,6.84
2023-01-07T22:21:50.507Z,6.86
2023-01-07T22:23:55.216Z,6.85
2023-01-07T22:26:05.508Z,6.86
2023-01-07T22:28:11.274Z,6.88
2023-01-07T22:30:17.482Z,6.90
2023-01-07T22:32:22.229Z,6.94
2023-01-07T22:34:27.047Z,6.96
2023-01-07T22:36:36.197Z,6.99
2023-01-07T22:38:41.416Z,6.98
2023-01-07T22:40:46.248Z,6.99
2023-01-07T22:42:57.345Z,7.02
2023-01-07T22:45:08.647Z,7.05
2023-01-07T22:47:15.532Z,7.06
2023-01-07T22:49:22.783Z,7.05
2023-01-07T22:51:34.390Z,7.04
2023-01-07T22:53:39.305Z,7.04
2023-01-07T22:55:44.141Z,7.04
2023-01-07T22:57:49.279Z,7.03
2023-01-07T22:59:54.111Z,6.96
2023-01-07T23:01:58.930Z,6.95
2023-01-07T23:04:04.111Z,6.95
2023-01-07T23:06:10.230Z,6.92
2023-01-07T23:08:15.104Z,6.92
2023-01-07T23:10:19.851Z,6.92
2023-01-07T23:12:24.554Z,6.94
2023-01-07T23:14:30.691Z,6.95
2023-01-07T23:16:36.857Z,6.95
2023-01-07T23:18:41.542Z,6.96
2023-01-07T23:20:46.194Z,6.96
2023-01-07T23:22:51.104Z,6.98
2023-01-07T23:24:55.787Z,6.94
2023-01-07T23:27:00.557Z,6.89
2023-01-07T23:29:05.378Z,6.85
2023-01-07T23:31:10.193Z,6.84
2023-01-07T23:33:14.924Z,6.85
2023-01-07T23:35:19.649Z,6.84
2023-01-07T23:37:24.716Z,6.85
2023-01-07T23:39:29.429Z,6.86
2023-01-07T23:41:34.586Z,6.86
2023-01-07T23:43:39.716Z,6.87
2023-01-07T23:45:44.591Z,6.89
2023-01-07T23:47:49.303Z,6.91
2023-01-07T23:49:54.063Z,6.94
2023-01-07T23:51:59.203Z,6.97
2023-01-07T23:54:03.983Z,6.94
2023-01-07T23:56:10.151Z,6.92
2023-01-07T23:58:14.864Z,6.88
